Flight Track Log - Related Links

Times and Time Zones

All times are in EDT time to prevent confusion due to time zone crossing. See the FLG3800 flight status page for this flight to view local times or setup timezone preferences in your user account.

Time Position Orientation Groundspeed Altitude Reporting Facility
EDT Latitude Longitude Course Direction KTS MPH feet Rate Location/Type
Sun 09:45:25 PM 42.2036 -83.3556 71° East 144 166 1,300  Level Cleveland Center
Sun 09:46:32 PM 42.1475 -83.3475 174° South 220 253 3,800 2,129 Climbing Cleveland Center
Sun 09:46:58 PM 42.1186 -83.3406 170° South 250 288 4,600 2,651 Climbing Cleveland Center
Sun 09:47:58 PM 42.0978 -83.2556 108° East 284 327 7,600 2,800 Climbing Cleveland Center
Sun 09:48:00 PM 42.2905 -82.8808 75° East  Level FlightAware Approximate
Sun 09:48:58 PM 42.1289 -83.1619 66° East 273 314 10,200  Level Cleveland Center
Sun 09:49:00 PM 42.3193 -82.7239 82° East  Level FlightAware Approximate
Sun 09:49:58 PM 42.1669 -83.0514 65° Northeast 287 330 12,000  Level Cleveland Center
Sun 09:50:00 PM 42.3381 -82.5643 71° East  Level FlightAware Approximate
Sun 09:50:58 PM 42.2069 -82.9294 66° East 321 369 14,000  Level Cleveland Center
Sun 09:51:58 PM 42.2344 -82.7986 74° East 345 397 16,000 1,850 Climbing Cleveland Center
Sun 09:52:58 PM 42.2331 -82.6556 91° East 364 419 17,700 1,550 Climbing Cleveland Center
Sun 09:53:58 PM 42.2336 -82.5069 90° East 374 430 19,100 1,250 Climbing Cleveland Center
Sun 09:54:58 PM 42.2339 -82.3500 90° East 395 455 20,200 1,150 Climbing Cleveland Center
Sun 09:55:58 PM 42.2322 -82.1872 91° East 410 472 21,400 1,200 Climbing Cleveland Center
Sun 09:56:58 PM 42.2322 -82.0217 90° East 431 496 22,600 1,100 Climbing Cleveland Center
Sun 09:57:58 PM 42.2322 -81.8564 90° East 444 511 23,600 1,000 Climbing Cleveland Center
Sun 09:58:58 PM 42.2319 -81.6853 90° East 450 518 24,600 900 Climbing Cleveland Center
Sun 09:59:58 PM 42.2314 -81.5114 90° East 455 524 25,400 750 Climbing Cleveland Center
Sun 10:00:58 PM 42.2283 -81.3375 91° East 460 529 26,100 550 Climbing Cleveland Center
Sun 10:01:58 PM 42.2272 -81.1719 90° East 467 537 26,500 500 Climbing Cleveland Center
Sun 10:02:58 PM 42.2239 -80.9925 91° East 474 545 27,100 600 Climbing Cleveland Center
Sun 10:03:58 PM 42.2244 -80.8131 90° East 475 547 27,700 550 Climbing Cleveland Center
Sun 10:04:58 PM 42.2206 -80.6253 92° East 481 554 28,200 650 Climbing Cleveland Center
Sun 10:05:58 PM 42.2183 -80.4486 91° East 476 548 29,000 900 Climbing Cleveland Center
Sun 10:06:58 PM 42.2158 -80.2525 91° East 476 548 30,000 1,000 Climbing Cleveland Center
Sun 10:07:58 PM 42.2111 -80.0758 92° East 471 542 31,000 500 Climbing Cleveland Center
Sun 10:08:58 PM 42.2375 -79.9269 76° East 449 517 31,000  Level Cleveland Center
Sun 10:09:58 PM 42.2989 -79.7719 62° Northeast 449 517 31,000  Level Cleveland Center
Sun 10:10:58 PM 42.3561 -79.6111 64° Northeast 459 528 31,000  Level Cleveland Center
Sun 10:11:58 PM 42.4192 -79.4414 63° Northeast 471 542 31,000  Level Cleveland Center
Sun 10:12:58 PM 42.4839 -79.2683 63° Northeast 489 563 31,000  Level Cleveland Center
Sun 10:13:58 PM 42.5486 -79.0978 63° Northeast 501 577 31,000  Level Cleveland Center
Sun 10:14:58 PM 42.6089 -78.9272 64° Northeast 501 577 31,000  Level Cleveland Center
Sun 10:15:58 PM 42.6708 -78.7533 64° Northeast 506 582 31,000  Level Cleveland Center
Sun 10:16:58 PM 42.7325 -78.5792 64° Northeast 506 582 31,000  Level Cleveland Center
Sun 10:17:58 PM 42.7939 -78.4044 64° Northeast 506 582 31,000  Level Cleveland Center
Sun 10:18:58 PM 42.8553 -78.2297 64° Northeast 511 588 31,000  Level Cleveland Center
Sun 10:19:58 PM 42.9139 -78.0517 66° East 511 588 31,000  Level Cleveland Center
Sun 10:20:58 PM 42.9747 -77.8789 64° Northeast 511 588 31,000  Level Cleveland Center
Sun 10:23:02 PM 43.1003 -77.5169 64° Northeast 528 608 31,000  Level Boston Center
Sun 10:24:02 PM 43.1622 -77.3400 64° Northeast 528 608 31,000  Level Boston Center
Sun 10:25:02 PM 43.2197 -77.1619 66° East 516 594 31,000  Level Boston Center
Sun 10:26:02 PM 43.2792 -76.9839 65° Northeast 510 587 31,000  Level Boston Center
Sun 10:27:02 PM 43.3403 -76.8058 65° Northeast 510 587 31,000  Level Boston Center
Sun 10:28:02 PM 43.4033 -76.6217 65° Northeast 515 593 31,000  Level Boston Center
Sun 10:29:02 PM 43.4667 -76.4256 66° East 515 593 31,000  Level Boston Center
Sun 10:30:02 PM 43.5269 -76.2461 65° Northeast 515 593 31,000  Level Boston Center
Sun 10:31:02 PM 43.5850 -76.0636 66° East 515 593 31,000  Level Boston Center
Sun 10:32:02 PM 43.6450 -75.8833 65° Northeast 515 593 31,000 -50 Level Boston Center
Sun 10:33:02 PM 43.7003 -75.7028 67° East 515 593 30,900 -300 Descending Boston Center
Sun 10:34:02 PM 43.7594 -75.5189 66° East 515 593 30,400 -500 Descending Boston Center
Sun 10:35:02 PM 43.8186 -75.3292 67° East 515 593 29,900 -500 Descending Boston Center
Sun 10:36:02 PM 43.8731 -75.1447 68° East 525 604 29,400 -950 Descending Boston Center
Sun 10:37:02 PM 43.9336 -74.9542 66° East 525 604 28,000 -2,250 Descending Boston Center
Sun 10:38:02 PM 43.9875 -74.7744 67° East 525 604 24,900 -3,050 Descending Boston Center
Sun 10:39:02 PM 44.0411 -74.6006 67° East 507 583 21,900 -2,900 Descending Boston Center
Sun 10:40:02 PM 44.0897 -74.4403 67° East 473 544 19,100 -1,900 Descending Boston Center
Sun 10:41:02 PM 44.1383 -74.2742 68° East 456 525 18,100 -1,850 Descending Boston Center
Sun 10:42:02 PM 44.1867 -74.1192 66° East 444 511 15,400 -2,600 Descending Boston Center
Sun 10:43:02 PM 44.2325 -73.9642 68° East 433 498 12,900 -2,250 Descending Boston Center
Sun 10:44:02 PM 44.2758 -73.8261 66° East 411 473 10,900 -1,850 Descending Boston Center
Sun 10:45:02 PM 44.3231 -73.7111 60° Northeast 353 406 9,200 -1,800 Descending Boston Center
Sun 10:46:02 PM 44.3681 -73.6017 60° Northeast 326 375 7,300 -2,100 Descending Boston Center
Sun 10:47:02 PM 44.4106 -73.4978 60° Northeast 314 361 5,000 -1,850 Descending Boston Center
Sun 10:48:02 PM 44.4489 -73.4025 61° Northeast 298 343 3,600 -1,300 Descending Boston Center
Sun 10:49:02 PM 44.4872 -73.3247 55° Northeast 257 296 2,400 -1,200 Descending Boston Center

Login

Don't have an account? Register now (free) for customized features, flight alerts, and more!